sensor_id;sensor_type;location;lat;lon;timestamp;P1;durP1;ratioP1;P2;durP2;ratioP2
9459;SDS011;4768;42.664;23.240;2022-10-31T00:00:31;5.20;;;2.10;;
9459;SDS011;4768;42.664;23.240;2022-10-31T00:02:58;4.50;;;2.03;;
9459;SDS011;4768;42.664;23.240;2022-10-31T00:05:24;6.80;;;2.53;;
9459;SDS011;4768;42.664;23.240;2022-10-31T00:07:51;6.03;;;2.47;;
9459;SDS011;4768;42.664;23.240;2022-10-31T00:10:20;4.67;;;2.27;;
9459;SDS011;4768;42.664;23.240;2022-10-31T00:12:46;3.90;;;2.30;;
9459;SDS011;4768;42.664;23.240;2022-10-31T00:15:13;5.67;;;2.70;;
9459;SDS011;4768;42.664;23.240;2022-10-31T00:17:40;5.13;;;2.37;;
9459;SDS011;4768;42.664;23.240;2022-10-31T00:20:07;2.30;;;1.90;;
9459;SDS011;4768;42.664;23.240;2022-10-31T00:22:35;7.57;;;2.30;;
9459;SDS011;4768;42.664;23.240;2022-10-31T00:25:01;3.30;;;2.27;;
9459;SDS011;4768;42.664;23.240;2022-10-31T00:27:30;4.30;;;2.17;;
9459;SDS011;4768;42.664;23.240;2022-10-31T00:29:57;3.97;;;1.83;;
9459;SDS011;4768;42.664;23.240;2022-10-31T00:32:23;4.90;;;2.23;;
9459;SDS011;4768;42.664;23.240;2022-10-31T00:34:50;6.93;;;2.50;;
9459;SDS011;4768;42.664;23.240;2022-10-31T00:37:17;6.77;;;2.43;;
9459;SDS011;4768;42.664;23.240;2022-10-31T00:39:43;3.53;;;2.27;;
9459;SDS011;4768;42.664;23.240;2022-10-31T00:42:10;6.00;;;2.77;;
9459;SDS011;4768;42.664;23.240;2022-10-31T00:44:38;5.30;;;2.17;;
9459;SDS011;4768;42.664;23.240;2022-10-31T00:47:05;7.20;;;2.30;;
9459;SDS011;4768;42.664;23.240;2022-10-31T00:49:32;5.60;;;2.33;;
9459;SDS011;4768;42.664;23.240;2022-10-31T00:51:58;2.67;;;2.13;;
9459;SDS011;4768;42.664;23.240;2022-10-31T00:54:25;5.30;;;2.37;;
9459;SDS011;4768;42.664;23.240;2022-10-31T00:56:52;7.57;;;2.37;;
9459;SDS011;4768;42.664;23.240;2022-10-31T00:59:19;5.20;;;2.50;;
9459;SDS011;4768;42.664;23.240;2022-10-31T01:01:47;4.17;;;2.30;;
9459;SDS011;4768;42.664;23.240;2022-10-31T01:04:13;9.17;;;2.43;;
9459;SDS011;4768;42.664;23.240;2022-10-31T01:06:40;4.47;;;1.90;;
9459;SDS011;4768;42.664;23.240;2022-10-31T01:09:07;3.43;;;2.50;;
9459;SDS011;4768;42.664;23.240;2022-10-31T01:11:34;6.57;;;2.73;;
9459;SDS011;4768;42.664;23.240;2022-10-31T01:14:01;3.07;;;2.43;;
9459;SDS011;4768;42.664;23.240;2022-10-31T01:16:27;4.37;;;2.50;;
9459;SDS011;4768;42.664;23.240;2022-10-31T01:18:57;4.53;;;2.57;;
9459;SDS011;4768;42.664;23.240;2022-10-31T01:21:24;5.97;;;2.40;;
9459;SDS011;4768;42.664;23.240;2022-10-31T01:23:52;5.60;;;2.57;;
9459;SDS011;4768;42.664;23.240;2022-10-31T01:26:21;5.93;;;2.63;;
9459;SDS011;4768;42.664;23.240;2022-10-31T01:28:49;5.00;;;2.83;;
9459;SDS011;4768;42.664;23.240;2022-10-31T01:31:18;8.17;;;2.70;;
9459;SDS011;4768;42.664;23.240;2022-10-31T01:33:46;7.37;;;2.90;;
9459;SDS011;4768;42.664;23.240;2022-10-31T01:36:16;6.00;;;2.80;;
9459;SDS011;4768;42.664;23.240;2022-10-31T01:38:44;5.93;;;2.70;;
9459;SDS011;4768;42.664;23.240;2022-10-31T01:41:12;8.90;;;2.70;;
9459;SDS011;4768;42.664;23.240;2022-10-31T01:43:41;5.60;;;2.63;;
9459;SDS011;4768;42.664;23.240;2022-10-31T01:46:09;7.97;;;2.70;;
9459;SDS011;4768;42.664;23.240;2022-10-31T01:48:36;6.73;;;2.57;;
9459;SDS011;4768;42.664;23.240;2022-10-31T01:51:05;8.67;;;2.97;;
9459;SDS011;4768;42.664;23.240;2022-10-31T01:53:34;7.33;;;2.60;;
9459;SDS011;4768;42.664;23.240;2022-10-31T01:56:02;5.37;;;2.53;;
9459;SDS011;4768;42.664;23.240;2022-10-31T01:58:29;4.90;;;2.50;;
9459;SDS011;4768;42.664;23.240;2022-10-31T02:00:58;4.30;;;2.50;;
9459;SDS011;4768;42.664;23.240;2022-10-31T02:03:28;6.03;;;3.43;;
9459;SDS011;4768;42.664;23.240;2022-10-31T02:05:56;8.13;;;2.90;;
9459;SDS011;4768;42.664;23.240;2022-10-31T02:08:25;6.13;;;2.93;;
9459;SDS011;4768;42.664;23.240;2022-10-31T02:10:55;5.20;;;2.73;;
9459;SDS011;4768;42.664;23.240;2022-10-31T02:13:24;6.43;;;2.80;;
9459;SDS011;4768;42.664;23.240;2022-10-31T02:15:51;5.70;;;2.60;;
9459;SDS011;4768;42.664;23.240;2022-10-31T02:18:20;5.37;;;2.90;;
9459;SDS011;4768;42.664;23.240;2022-10-31T02:20:51;9.40;;;2.53;;
9459;SDS011;4768;42.664;23.240;2022-10-31T02:23:34;3.70;;;2.63;;
9459;SDS011;4768;42.664;23.240;2022-10-31T02:26:23;5.23;;;3.17;;
9459;SDS011;4768;42.664;23.240;2022-10-31T02:29:05;6.40;;;2.60;;
9459;SDS011;4768;42.664;23.240;2022-10-31T02:31:52;4.03;;;2.83;;
9459;SDS011;4768;42.664;23.240;2022-10-31T02:34:28;3.63;;;2.90;;
9459;SDS011;4768;42.664;23.240;2022-10-31T02:37:02;8.17;;;2.97;;
9459;SDS011;4768;42.664;23.240;2022-10-31T02:39:36;7.07;;;2.90;;
9459;SDS011;4768;42.664;23.240;2022-10-31T02:42:10;5.67;;;2.90;;
9459;SDS011;4768;42.664;23.240;2022-10-31T02:44:44;6.73;;;3.10;;
9459;SDS011;4768;42.664;23.240;2022-10-31T02:47:19;3.83;;;2.83;;
9459;SDS011;4768;42.664;23.240;2022-10-31T02:49:51;3.90;;;2.87;;
9459;SDS011;4768;42.664;23.240;2022-10-31T02:52:25;6.63;;;3.33;;
9459;SDS011;4768;42.664;23.240;2022-10-31T02:54:53;6.07;;;2.90;;
9459;SDS011;4768;42.664;23.240;2022-10-31T02:57:20;6.23;;;3.73;;
9459;SDS011;4768;42.664;23.240;2022-10-31T02:59:52;5.63;;;3.40;;
9459;SDS011;4768;42.664;23.240;2022-10-31T03:02:38;6.50;;;3.47;;
9459;SDS011;4768;42.664;23.240;2022-10-31T03:05:14;4.93;;;3.10;;
9459;SDS011;4768;42.664;23.240;2022-10-31T03:07:56;7.97;;;3.67;;
9459;SDS011;4768;42.664;23.240;2022-10-31T03:10:28;6.67;;;3.77;;
9459;SDS011;4768;42.664;23.240;2022-10-31T03:13:02;6.90;;;3.50;;
9459;SDS011;4768;42.664;23.240;2022-10-31T03:15:36;6.50;;;3.60;;
9459;SDS011;4768;42.664;23.240;2022-10-31T03:18:07;5.93;;;3.33;;
9459;SDS011;4768;42.664;23.240;2022-10-31T03:20:36;8.43;;;3.80;;
9459;SDS011;4768;42.664;23.240;2022-10-31T03:23:08;5.13;;;3.30;;
9459;SDS011;4768;42.664;23.240;2022-10-31T03:25:39;5.43;;;3.27;;
9459;SDS011;4768;42.664;23.240;2022-10-31T03:28:08;7.73;;;3.43;;
9459;SDS011;4768;42.664;23.240;2022-10-31T03:30:38;6.67;;;3.53;;
9459;SDS011;4768;42.664;23.240;2022-10-31T03:33:10;7.00;;;3.73;;
9459;SDS011;4768;42.664;23.240;2022-10-31T03:35:41;8.30;;;3.40;;
9459;SDS011;4768;42.664;23.240;2022-10-31T03:38:11;7.23;;;3.80;;
9459;SDS011;4768;42.664;23.240;2022-10-31T03:40:39;7.03;;;3.30;;
9459;SDS011;4768;42.664;23.240;2022-10-31T03:43:10;6.43;;;3.63;;
9459;SDS011;4768;42.664;23.240;2022-10-31T03:45:43;5.33;;;3.53;;
9459;SDS011;4768;42.664;23.240;2022-10-31T03:48:13;5.87;;;3.50;;
9459;SDS011;4768;42.664;23.240;2022-10-31T03:50:44;8.43;;;3.90;;
9459;SDS011;4768;42.664;23.240;2022-10-31T03:53:17;7.83;;;4.13;;
9459;SDS011;4768;42.664;23.240;2022-10-31T03:55:50;7.93;;;4.03;;
9459;SDS011;4768;42.664;23.240;2022-10-31T03:58:24;5.93;;;3.63;;
9459;SDS011;4768;42.664;23.240;2022-10-31T04:00:56;8.20;;;3.40;;
9459;SDS011;4768;42.664;23.240;2022-10-31T04:03:28;5.43;;;3.53;;
9459;SDS011;4768;42.664;23.240;2022-10-31T04:05:59;11.60;;;3.63;;
9459;SDS011;4768;42.664;23.240;2022-10-31T04:08:31;6.53;;;3.80;;
9459;SDS011;4768;42.664;23.240;2022-10-31T04:11:02;7.93;;;3.60;;
9459;SDS011;4768;42.664;23.240;2022-10-31T04:13:32;7.40;;;4.03;;
9459;SDS011;4768;42.664;23.240;2022-10-31T04:16:01;11.67;;;4.07;;
9459;SDS011;4768;42.664;23.240;2022-10-31T04:18:29;8.83;;;4.47;;
9459;SDS011;4768;42.664;23.240;2022-10-31T04:21:00;6.57;;;3.83;;
9459;SDS011;4768;42.664;23.240;2022-10-31T04:23:28;8.37;;;4.00;;
9459;SDS011;4768;42.664;23.240;2022-10-31T04:25:55;6.43;;;3.37;;
9459;SDS011;4768;42.664;23.240;2022-10-31T04:28:22;8.40;;;3.93;;
9459;SDS011;4768;42.664;23.240;2022-10-31T04:30:49;9.37;;;3.70;;
9459;SDS011;4768;42.664;23.240;2022-10-31T04:33:16;8.27;;;3.77;;
9459;SDS011;4768;42.664;23.240;2022-10-31T04:35:44;6.80;;;3.83;;
9459;SDS011;4768;42.664;23.240;2022-10-31T04:38:11;9.03;;;3.70;;
9459;SDS011;4768;42.664;23.240;2022-10-31T04:40:38;7.27;;;4.00;;
9459;SDS011;4768;42.664;23.240;2022-10-31T04:43:05;5.00;;;3.63;;
9459;SDS011;4768;42.664;23.240;2022-10-31T04:45:31;4.50;;;3.43;;
9459;SDS011;4768;42.664;23.240;2022-10-31T04:47:58;7.70;;;4.10;;
9459;SDS011;4768;42.664;23.240;2022-10-31T04:50:25;11.57;;;4.03;;
9459;SDS011;4768;42.664;23.240;2022-10-31T04:52:53;5.93;;;3.60;;
9459;SDS011;4768;42.664;23.240;2022-10-31T04:55:20;8.47;;;4.43;;
9459;SDS011;4768;42.664;23.240;2022-10-31T04:57:47;6.23;;;4.33;;
9459;SDS011;4768;42.664;23.240;2022-10-31T05:00:16;7.97;;;4.83;;
9459;SDS011;4768;42.664;23.240;2022-10-31T05:02:45;8.97;;;4.20;;
9459;SDS011;4768;42.664;23.240;2022-10-31T05:05:12;9.00;;;4.50;;
9459;SDS011;4768;42.664;23.240;2022-10-31T05:07:40;7.47;;;4.97;;
9459;SDS011;4768;42.664;23.240;2022-10-31T05:10:09;8.43;;;5.17;;
9459;SDS011;4768;42.664;23.240;2022-10-31T05:12:36;8.37;;;4.60;;
9459;SDS011;4768;42.664;23.240;2022-10-31T05:15:04;8.43;;;5.57;;
9459;SDS011;4768;42.664;23.240;2022-10-31T05:17:31;11.63;;;5.67;;
9459;SDS011;4768;42.664;23.240;2022-10-31T05:19:58;6.97;;;4.93;;
9459;SDS011;4768;42.664;23.240;2022-10-31T05:22:25;11.90;;;5.57;;
9459;SDS011;4768;42.664;23.240;2022-10-31T05:24:51;12.40;;;5.33;;
9459;SDS011;4768;42.664;23.240;2022-10-31T05:27:19;8.07;;;5.13;;
9459;SDS011;4768;42.664;23.240;2022-10-31T05:29:46;7.53;;;4.97;;
9459;SDS011;4768;42.664;23.240;2022-10-31T05:32:13;10.17;;;4.97;;
9459;SDS011;4768;42.664;23.240;2022-10-31T05:34:40;11.93;;;5.50;;
9459;SDS011;4768;42.664;23.240;2022-10-31T05:37:06;9.13;;;5.37;;
9459;SDS011;4768;42.664;23.240;2022-10-31T05:39:33;9.90;;;6.73;;
9459;SDS011;4768;42.664;23.240;2022-10-31T05:42:00;9.13;;;5.87;;
9459;SDS011;4768;42.664;23.240;2022-10-31T05:44:28;9.97;;;5.60;;
9459;SDS011;4768;42.664;23.240;2022-10-31T05:46:55;10.10;;;6.20;;
9459;SDS011;4768;42.664;23.240;2022-10-31T05:49:21;11.00;;;8.17;;
9459;SDS011;4768;42.664;23.240;2022-10-31T05:51:48;17.03;;;7.47;;
9459;SDS011;4768;42.664;23.240;2022-10-31T05:54:15;11.83;;;8.87;;
9459;SDS011;4768;42.664;23.240;2022-10-31T05:56:42;12.40;;;8.50;;
9459;SDS011;4768;42.664;23.240;2022-10-31T05:59:10;15.47;;;7.93;;
9459;SDS011;4768;42.664;23.240;2022-10-31T06:01:38;11.77;;;8.07;;
9459;SDS011;4768;42.664;23.240;2022-10-31T06:04:04;9.57;;;6.50;;
9459;SDS011;4768;42.664;23.240;2022-10-31T06:06:31;13.33;;;6.73;;
9459;SDS011;4768;42.664;23.240;2022-10-31T06:08:58;12.70;;;7.53;;
9459;SDS011;4768;42.664;23.240;2022-10-31T06:11:25;13.10;;;6.27;;
9459;SDS011;4768;42.664;23.240;2022-10-31T06:13:51;10.23;;;6.50;;
9459;SDS011;4768;42.664;23.240;2022-10-31T06:16:18;16.27;;;7.00;;
9459;SDS011;4768;42.664;23.240;2022-10-31T06:18:47;10.00;;;7.10;;
9459;SDS011;4768;42.664;23.240;2022-10-31T06:21:13;13.37;;;8.73;;
9459;SDS011;4768;42.664;23.240;2022-10-31T06:23:40;12.97;;;8.93;;
9459;SDS011;4768;42.664;23.240;2022-10-31T06:26:07;20.60;;;11.47;;
9459;SDS011;4768;42.664;23.240;2022-10-31T06:28:34;14.77;;;7.60;;
9459;SDS011;4768;42.664;23.240;2022-10-31T06:31:00;12.90;;;7.77;;
9459;SDS011;4768;42.664;23.240;2022-10-31T06:33:27;13.27;;;8.43;;
9459;SDS011;4768;42.664;23.240;2022-10-31T06:35:55;19.83;;;8.67;;
9459;SDS011;4768;42.664;23.240;2022-10-31T06:38:22;17.00;;;9.20;;
9459;SDS011;4768;42.664;23.240;2022-10-31T06:40:49;17.97;;;10.80;;
9459;SDS011;4768;42.664;23.240;2022-10-31T06:43:15;45.03;;;18.47;;
9459;SDS011;4768;42.664;23.240;2022-10-31T06:45:42;25.03;;;12.43;;
9459;SDS011;4768;42.664;23.240;2022-10-31T06:48:09;27.37;;;11.77;;
9459;SDS011;4768;42.664;23.240;2022-10-31T06:50:36;29.37;;;13.17;;
9459;SDS011;4768;42.664;23.240;2022-10-31T06:53:04;26.63;;;13.37;;
9459;SDS011;4768;42.664;23.240;2022-10-31T06:55:31;28.47;;;13.20;;
9459;SDS011;4768;42.664;23.240;2022-10-31T06:57:58;34.40;;;13.47;;
9459;SDS011;4768;42.664;23.240;2022-10-31T07:00:27;25.50;;;14.10;;
9459;SDS011;4768;42.664;23.240;2022-10-31T07:02:56;20.83;;;13.50;;
9459;SDS011;4768;42.664;23.240;2022-10-31T07:05:23;24.73;;;13.07;;
9459;SDS011;4768;42.664;23.240;2022-10-31T07:07:54;28.30;;;13.83;;
9459;SDS011;4768;42.664;23.240;2022-10-31T07:10:23;20.90;;;13.73;;
9459;SDS011;4768;42.664;23.240;2022-10-31T07:12:53;27.80;;;14.00;;
9459;SDS011;4768;42.664;23.240;2022-10-31T07:15:21;28.80;;;14.40;;
9459;SDS011;4768;42.664;23.240;2022-10-31T07:17:48;31.23;;;14.10;;
9459;SDS011;4768;42.664;23.240;2022-10-31T07:20:17;25.60;;;14.83;;
9459;SDS011;4768;42.664;23.240;2022-10-31T07:22:44;28.27;;;14.53;;
9459;SDS011;4768;42.664;23.240;2022-10-31T07:25:11;29.90;;;14.33;;
9459;SDS011;4768;42.664;23.240;2022-10-31T07:27:39;27.57;;;14.93;;
9459;SDS011;4768;42.664;23.240;2022-10-31T07:30:08;29.73;;;14.97;;
9459;SDS011;4768;42.664;23.240;2022-10-31T07:32:37;23.73;;;14.03;;
9459;SDS011;4768;42.664;23.240;2022-10-31T07:35:05;20.43;;;13.90;;
9459;SDS011;4768;42.664;23.240;2022-10-31T07:37:33;47.10;;;29.20;;
9459;SDS011;4768;42.664;23.240;2022-10-31T07:40:00;31.17;;;13.73;;
9459;SDS011;4768;42.664;23.240;2022-10-31T07:42:27;26.20;;;14.00;;
9459;SDS011;4768;42.664;23.240;2022-10-31T07:44:55;24.60;;;14.20;;
9459;SDS011;4768;42.664;23.240;2022-10-31T07:47:21;19.50;;;12.97;;
9459;SDS011;4768;42.664;23.240;2022-10-31T07:49:48;16.97;;;11.13;;
9459;SDS011;4768;42.664;23.240;2022-10-31T07:52:15;18.83;;;11.23;;
9459;SDS011;4768;42.664;23.240;2022-10-31T07:54:41;17.57;;;10.10;;
9459;SDS011;4768;42.664;23.240;2022-10-31T07:57:08;16.07;;;9.63;;
9459;SDS011;4768;42.664;23.240;2022-10-31T07:59:35;17.97;;;9.20;;
9459;SDS011;4768;42.664;23.240;2022-10-31T08:02:03;17.33;;;8.73;;
9459;SDS011;4768;42.664;23.240;2022-10-31T08:04:30;17.23;;;9.00;;
9459;SDS011;4768;42.664;23.240;2022-10-31T08:06:56;20.00;;;10.80;;
9459;SDS011;4768;42.664;23.240;2022-10-31T08:09:23;19.10;;;9.80;;
9459;SDS011;4768;42.664;23.240;2022-10-31T08:11:50;15.27;;;7.77;;
9459;SDS011;4768;42.664;23.240;2022-10-31T08:14:17;13.13;;;7.83;;
9459;SDS011;4768;42.664;23.240;2022-10-31T08:16:43;14.93;;;8.80;;
9459;SDS011;4768;42.664;23.240;2022-10-31T08:19:12;16.67;;;9.13;;
9459;SDS011;4768;42.664;23.240;2022-10-31T08:21:38;15.00;;;9.23;;
9459;SDS011;4768;42.664;23.240;2022-10-31T08:24:05;12.17;;;8.97;;
9459;SDS011;4768;42.664;23.240;2022-10-31T08:26:32;15.50;;;8.87;;
9459;SDS011;4768;42.664;23.240;2022-10-31T08:28:59;14.53;;;8.30;;
9459;SDS011;4768;42.664;23.240;2022-10-31T08:31:26;10.67;;;8.17;;
9459;SDS011;4768;42.664;23.240;2022-10-31T08:33:53;19.93;;;9.40;;
9459;SDS011;4768;42.664;23.240;2022-10-31T08:36:21;16.40;;;9.20;;
9459;SDS011;4768;42.664;23.240;2022-10-31T08:38:48;15.63;;;8.43;;
9459;SDS011;4768;42.664;23.240;2022-10-31T08:41:15;17.40;;;9.23;;
9459;SDS011;4768;42.664;23.240;2022-10-31T08:43:42;15.73;;;8.47;;
9459;SDS011;4768;42.664;23.240;2022-10-31T08:46:08;16.93;;;8.57;;
9459;SDS011;4768;42.664;23.240;2022-10-31T08:48:35;15.23;;;8.97;;
9459;SDS011;4768;42.664;23.240;2022-10-31T08:51:02;15.13;;;9.33;;
9459;SDS011;4768;42.664;23.240;2022-10-31T08:53:30;14.50;;;9.00;;
9459;SDS011;4768;42.664;23.240;2022-10-31T08:55:57;11.37;;;7.27;;
9459;SDS011;4768;42.664;23.240;2022-10-31T08:58:24;15.30;;;7.50;;
9459;SDS011;4768;42.664;23.240;2022-10-31T09:00:52;15.83;;;7.40;;
9459;SDS011;4768;42.664;23.240;2022-10-31T09:03:19;12.70;;;7.13;;
9459;SDS011;4768;42.664;23.240;2022-10-31T09:05:47;14.80;;;8.07;;
9459;SDS011;4768;42.664;23.240;2022-10-31T09:08:14;16.43;;;7.73;;
9459;SDS011;4768;42.664;23.240;2022-10-31T09:10:43;12.40;;;7.07;;
9459;SDS011;4768;42.664;23.240;2022-10-31T09:13:11;12.87;;;6.87;;
9459;SDS011;4768;42.664;23.240;2022-10-31T09:15:40;10.70;;;7.30;;
9459;SDS011;4768;42.664;23.240;2022-10-31T09:18:09;14.73;;;7.40;;
9459;SDS011;4768;42.664;23.240;2022-10-31T09:20:37;14.37;;;6.90;;
9459;SDS011;4768;42.664;23.240;2022-10-31T09:23:05;11.13;;;6.57;;
9459;SDS011;4768;42.664;23.240;2022-10-31T09:25:35;7.73;;;6.43;;
9459;SDS011;4768;42.664;23.240;2022-10-31T09:28:04;11.37;;;7.13;;
9459;SDS011;4768;42.664;23.240;2022-10-31T09:30:32;9.33;;;6.80;;
9459;SDS011;4768;42.664;23.240;2022-10-31T09:33:01;12.40;;;7.67;;
9459;SDS011;4768;42.664;23.240;2022-10-31T09:35:29;10.23;;;7.20;;
9459;SDS011;4768;42.664;23.240;2022-10-31T09:37:56;9.60;;;6.13;;
9459;SDS011;4768;42.664;23.240;2022-10-31T09:40:24;12.57;;;6.03;;
9459;SDS011;4768;42.664;23.240;2022-10-31T09:42:59;9.43;;;5.43;;
9459;SDS011;4768;42.664;23.240;2022-10-31T09:45:33;9.20;;;5.13;;
9459;SDS011;4768;42.664;23.240;2022-10-31T09:48:19;8.73;;;5.30;;
9459;SDS011;4768;42.664;23.240;2022-10-31T09:50:58;10.70;;;5.70;;
9459;SDS011;4768;42.664;23.240;2022-10-31T09:53:31;8.37;;;5.40;;
9459;SDS011;4768;42.664;23.240;2022-10-31T09:56:04;12.87;;;4.90;;
9459;SDS011;4768;42.664;23.240;2022-10-31T09:58:37;10.70;;;5.00;;
9459;SDS011;4768;42.664;23.240;2022-10-31T10:01:16;10.23;;;5.33;;
9459;SDS011;4768;42.664;23.240;2022-10-31T10:03:50;9.37;;;4.90;;
9459;SDS011;4768;42.664;23.240;2022-10-31T10:06:22;7.27;;;4.20;;
9459;SDS011;4768;42.664;23.240;2022-10-31T10:08:51;11.93;;;4.60;;
9459;SDS011;4768;42.664;23.240;2022-10-31T10:11:25;8.63;;;5.10;;
9459;SDS011;4768;42.664;23.240;2022-10-31T10:14:08;7.73;;;4.07;;
9459;SDS011;4768;42.664;23.240;2022-10-31T10:17:07;8.50;;;4.20;;
9459;SDS011;4768;42.664;23.240;2022-10-31T10:19:47;8.20;;;4.00;;
9459;SDS011;4768;42.664;23.240;2022-10-31T10:22:27;10.53;;;3.90;;
9459;SDS011;4768;42.664;23.240;2022-10-31T10:25:07;5.00;;;3.00;;
9459;SDS011;4768;42.664;23.240;2022-10-31T10:27:52;9.20;;;3.80;;
9459;SDS011;4768;42.664;23.240;2022-10-31T10:30:28;12.20;;;4.27;;
9459;SDS011;4768;42.664;23.240;2022-10-31T10:33:02;7.10;;;3.93;;
9459;SDS011;4768;42.664;23.240;2022-10-31T10:35:34;9.83;;;3.50;;
9459;SDS011;4768;42.664;23.240;2022-10-31T10:38:08;7.57;;;3.80;;
9459;SDS011;4768;42.664;23.240;2022-10-31T10:40:42;8.13;;;3.93;;
9459;SDS011;4768;42.664;23.240;2022-10-31T10:43:22;6.40;;;4.10;;
9459;SDS011;4768;42.664;23.240;2022-10-31T10:45:55;10.73;;;4.17;;
9459;SDS011;4768;42.664;23.240;2022-10-31T10:48:57;9.90;;;3.70;;
9459;SDS011;4768;42.664;23.240;2022-10-31T10:51:31;6.83;;;3.77;;
9459;SDS011;4768;42.664;23.240;2022-10-31T10:54:10;4.37;;;3.20;;
9459;SDS011;4768;42.664;23.240;2022-10-31T10:56:50;10.90;;;2.57;;
9459;SDS011;4768;42.664;23.240;2022-10-31T10:59:26;6.40;;;2.57;;
9459;SDS011;4768;42.664;23.240;2022-10-31T11:01:56;8.47;;;2.97;;
9459;SDS011;4768;42.664;23.240;2022-10-31T11:04:26;5.80;;;2.57;;
9459;SDS011;4768;42.664;23.240;2022-10-31T11:06:57;5.90;;;2.50;;
9459;SDS011;4768;42.664;23.240;2022-10-31T11:09:27;7.30;;;2.40;;
9459;SDS011;4768;42.664;23.240;2022-10-31T11:11:55;8.80;;;2.63;;
9459;SDS011;4768;42.664;23.240;2022-10-31T11:14:22;7.00;;;2.30;;
9459;SDS011;4768;42.664;23.240;2022-10-31T11:16:52;4.10;;;2.00;;
9459;SDS011;4768;42.664;23.240;2022-10-31T11:19:23;4.07;;;2.20;;
9459;SDS011;4768;42.664;23.240;2022-10-31T11:21:52;2.57;;;1.67;;
9459;SDS011;4768;42.664;23.240;2022-10-31T11:24:20;6.50;;;2.13;;
9459;SDS011;4768;42.664;23.240;2022-10-31T11:26:49;4.50;;;2.10;;
9459;SDS011;4768;42.664;23.240;2022-10-31T11:29:19;2.60;;;2.07;;
9459;SDS011;4768;42.664;23.240;2022-10-31T11:31:50;9.20;;;2.90;;
9459;SDS011;4768;42.664;23.240;2022-10-31T11:34:24;7.87;;;2.70;;
9459;SDS011;4768;42.664;23.240;2022-10-31T11:36:54;7.77;;;2.50;;
9459;SDS011;4768;42.664;23.240;2022-10-31T11:39:25;8.60;;;3.00;;
9459;SDS011;4768;42.664;23.240;2022-10-31T11:41:52;5.53;;;2.87;;
9459;SDS011;4768;42.664;23.240;2022-10-31T11:44:22;5.67;;;2.43;;
9459;SDS011;4768;42.664;23.240;2022-10-31T11:46:51;6.77;;;2.97;;
9459;SDS011;4768;42.664;23.240;2022-10-31T11:49:23;8.67;;;2.70;;
9459;SDS011;4768;42.664;23.240;2022-10-31T11:51:55;6.43;;;2.97;;
9459;SDS011;4768;42.664;23.240;2022-10-31T11:54:26;6.47;;;3.00;;
9459;SDS011;4768;42.664;23.240;2022-10-31T11:56:55;6.93;;;2.80;;
9459;SDS011;4768;42.664;23.240;2022-10-31T11:59:24;5.30;;;3.07;;
9459;SDS011;4768;42.664;23.240;2022-10-31T12:01:54;8.33;;;3.33;;
9459;SDS011;4768;42.664;23.240;2022-10-31T12:07:08;6.00;;;2.83;;
9459;SDS011;4768;42.664;23.240;2022-10-31T12:09:35;8.80;;;3.03;;
9459;SDS011;4768;42.664;23.240;2022-10-31T12:14:57;9.47;;;2.80;;
9459;SDS011;4768;42.664;23.240;2022-10-31T12:17:36;8.17;;;2.90;;
9459;SDS011;4768;42.664;23.240;2022-10-31T12:20:16;12.10;;;3.80;;
9459;SDS011;4768;42.664;23.240;2022-10-31T12:22:51;7.23;;;3.07;;
9459;SDS011;4768;42.664;23.240;2022-10-31T12:25:28;7.33;;;3.00;;
9459;SDS011;4768;42.664;23.240;2022-10-31T12:28:10;7.17;;;3.07;;
9459;SDS011;4768;42.664;23.240;2022-10-31T12:30:53;8.93;;;2.97;;
9459;SDS011;4768;42.664;23.240;2022-10-31T12:33:32;9.57;;;2.97;;
9459;SDS011;4768;42.664;23.240;2022-10-31T12:39:07;5.93;;;2.73;;
9459;SDS011;4768;42.664;23.240;2022-10-31T12:41:50;12.23;;;3.03;;
9459;SDS011;4768;42.664;23.240;2022-10-31T12:44:30;8.53;;;3.30;;
9459;SDS011;4768;42.664;23.240;2022-10-31T12:47:17;9.30;;;3.00;;
9459;SDS011;4768;42.664;23.240;2022-10-31T12:49:59;6.40;;;2.90;;
9459;SDS011;4768;42.664;23.240;2022-10-31T12:52:42;26.83;;;4.47;;
9459;SDS011;4768;42.664;23.240;2022-10-31T12:55:40;5.70;;;3.10;;
9459;SDS011;4768;42.664;23.240;2022-10-31T12:58:14;9.93;;;3.37;;
9459;SDS011;4768;42.664;23.240;2022-10-31T13:00:48;9.93;;;3.40;;
9459;SDS011;4768;42.664;23.240;2022-10-31T13:03:24;9.70;;;3.20;;
9459;SDS011;4768;42.664;23.240;2022-10-31T13:05:56;6.87;;;3.10;;
9459;SDS011;4768;42.664;23.240;2022-10-31T13:08:35;8.70;;;3.60;;
9459;SDS011;4768;42.664;23.240;2022-10-31T13:11:08;6.23;;;3.10;;
9459;SDS011;4768;42.664;23.240;2022-10-31T13:13:38;7.40;;;3.17;;
9459;SDS011;4768;42.664;23.240;2022-10-31T13:16:10;8.70;;;3.40;;
9459;SDS011;4768;42.664;23.240;2022-10-31T13:18:42;8.90;;;3.67;;
9459;SDS011;4768;42.664;23.240;2022-10-31T13:21:13;12.50;;;3.73;;
9459;SDS011;4768;42.664;23.240;2022-10-31T13:23:47;8.03;;;3.13;;
9459;SDS011;4768;42.664;23.240;2022-10-31T13:26:18;8.67;;;3.03;;
9459;SDS011;4768;42.664;23.240;2022-10-31T13:28:51;12.83;;;3.30;;
9459;SDS011;4768;42.664;23.240;2022-10-31T13:31:23;6.40;;;3.10;;
9459;SDS011;4768;42.664;23.240;2022-10-31T13:33:51;10.77;;;3.43;;
9459;SDS011;4768;42.664;23.240;2022-10-31T13:36:24;14.77;;;3.50;;
9459;SDS011;4768;42.664;23.240;2022-10-31T13:39:02;7.77;;;3.53;;
9459;SDS011;4768;42.664;23.240;2022-10-31T13:41:40;13.50;;;3.10;;
9459;SDS011;4768;42.664;23.240;2022-10-31T13:44:13;6.50;;;2.97;;
9459;SDS011;4768;42.664;23.240;2022-10-31T13:46:42;9.57;;;2.70;;
9459;SDS011;4768;42.664;23.240;2022-10-31T13:49:24;6.57;;;3.10;;
9459;SDS011;4768;42.664;23.240;2022-10-31T13:52:16;5.93;;;3.30;;
9459;SDS011;4768;42.664;23.240;2022-10-31T13:54:51;8.83;;;3.50;;
9459;SDS011;4768;42.664;23.240;2022-10-31T13:57:27;8.23;;;3.40;;
9459;SDS011;4768;42.664;23.240;2022-10-31T13:59:58;15.97;;;3.93;;
9459;SDS011;4768;42.664;23.240;2022-10-31T14:02:28;15.90;;;5.60;;
9459;SDS011;4768;42.664;23.240;2022-10-31T14:04:57;6.63;;;2.90;;
9459;SDS011;4768;42.664;23.240;2022-10-31T14:07:27;9.73;;;3.20;;
9459;SDS011;4768;42.664;23.240;2022-10-31T14:09:58;8.80;;;3.70;;
9459;SDS011;4768;42.664;23.240;2022-10-31T14:12:29;9.70;;;3.93;;
9459;SDS011;4768;42.664;23.240;2022-10-31T14:15:00;8.83;;;3.20;;
9459;SDS011;4768;42.664;23.240;2022-10-31T14:17:33;9.03;;;3.33;;
9459;SDS011;4768;42.664;23.240;2022-10-31T14:20:33;7.50;;;2.43;;
9459;SDS011;4768;42.664;23.240;2022-10-31T14:23:10;6.83;;;3.40;;
9459;SDS011;4768;42.664;23.240;2022-10-31T14:25:39;7.57;;;3.10;;
9459;SDS011;4768;42.664;23.240;2022-10-31T14:28:18;7.97;;;3.23;;
9459;SDS011;4768;42.664;23.240;2022-10-31T14:30:51;6.10;;;3.03;;
9459;SDS011;4768;42.664;23.240;2022-10-31T14:33:19;7.50;;;2.90;;
9459;SDS011;4768;42.664;23.240;2022-10-31T14:35:51;9.40;;;2.83;;
9459;SDS011;4768;42.664;23.240;2022-10-31T14:38:32;11.50;;;3.10;;
9459;SDS011;4768;42.664;23.240;2022-10-31T14:41:21;8.87;;;2.90;;
9459;SDS011;4768;42.664;23.240;2022-10-31T14:44:10;9.50;;;3.33;;
9459;SDS011;4768;42.664;23.240;2022-10-31T14:46:54;10.07;;;2.83;;
9459;SDS011;4768;42.664;23.240;2022-10-31T14:49:34;9.70;;;3.43;;
9459;SDS011;4768;42.664;23.240;2022-10-31T14:52:14;7.23;;;3.03;;
9459;SDS011;4768;42.664;23.240;2022-10-31T14:54:44;5.93;;;2.80;;
9459;SDS011;4768;42.664;23.240;2022-10-31T14:57:18;6.97;;;2.93;;
9459;SDS011;4768;42.664;23.240;2022-10-31T14:59:49;11.97;;;3.33;;
9459;SDS011;4768;42.664;23.240;2022-10-31T15:02:20;12.07;;;2.67;;
9459;SDS011;4768;42.664;23.240;2022-10-31T15:04:51;8.57;;;3.07;;
9459;SDS011;4768;42.664;23.240;2022-10-31T15:07:19;5.57;;;2.73;;
9459;SDS011;4768;42.664;23.240;2022-10-31T15:09:55;14.90;;;2.40;;
9459;SDS011;4768;42.664;23.240;2022-10-31T15:12:25;10.33;;;2.60;;
9459;SDS011;4768;42.664;23.240;2022-10-31T15:14:52;7.70;;;2.40;;
9459;SDS011;4768;42.664;23.240;2022-10-31T15:17:20;12.87;;;2.80;;
9459;SDS011;4768;42.664;23.240;2022-10-31T15:19:48;11.17;;;2.77;;
9459;SDS011;4768;42.664;23.240;2022-10-31T15:22:15;11.87;;;2.60;;
9459;SDS011;4768;42.664;23.240;2022-10-31T15:24:43;12.10;;;2.73;;